<?xml version="1.0" encoding="UTF-8"?><gpx xmlns="http://www.topografix.com/GPX/1/1"  creator="TraceDeTrail http://www.tracedetrail.fr" version="1.1" xmlns:xsi="http://www.w3.org/2001/XMLSchema-instance" xsi:schemaLocation="http://www.topografix.com/GPX/1/1 http://www.topografix.com/GPX/1/1/gpx.xsd "><metadata><name>Chamrousse 1750- La Croix de Chamrousse</name><link href="http://tracedetrail.fr/fr/trace/trace/121630"><text>methode de calcul : astergdem </text></link></metadata><trk><name>Chamrousse 1750- La Croix de Chamrousse sur TraceDeTrail.fr</name><trkseg><trkpt lat="45.11016" lon="5.87678"><ele>1744</ele><time>2000-01-01T01:40:35.000Z</time></trkpt><trkpt lat="45.11027" lon="5.8771"><ele>1754</ele><time>2000-01-01T01:40:45.000Z</time></trkpt><trkpt lat="45.11038" lon="5.87746"><ele>1757</ele><time>2000-01-01T01:40:55.000Z</time></trkpt><trkpt lat="45.11063" lon="5.87771"><ele>1762</ele><time>2000-01-01T01:41:05.000Z</time></trkpt><trkpt lat="45.11107" lon="5.87815"><ele>1766</ele><time>2000-01-01T01:41:15.000Z</time></trkpt><trkpt lat="45.11129" lon="5.87845"><ele>1771</ele><time>2000-01-01T01:41:25.000Z</time></trkpt><trkpt lat="45.11165" lon="5.87897"><ele>1778</ele><time>2000-01-01T01:41:35.000Z</time></trkpt><trkpt lat="45.11189" lon="5.87899"><ele>1778</ele><time>2000-01-01T01:41:45.000Z</time></trkpt><trkpt lat="45.11213" lon="5.87901"><ele>1784</ele><time>2000-01-01T01:41:55.000Z</time></trkpt><trkpt lat="45.11214" lon="5.87947"><ele>1789</ele><time>2000-01-01T01:42:05.000Z</time></trkpt><trkpt lat="45.11215" lon="5.87994"><ele>1792</ele><time>2000-01-01T01:42:15.000Z</time></trkpt><trkpt lat="45.11216" lon="5.88051"><ele>1799</ele><time>2000-01-01T01:42:25.000Z</time></trkpt><trkpt lat="45.11188" lon="5.88051"><ele>1804</ele><time>2000-01-01T01:42:35.000Z</time></trkpt><trkpt lat="45.11144" lon="5.88051"><ele>1804</ele><time>2000-01-01T01:42:45.000Z</time></trkpt><trkpt lat="45.11142" lon="5.88089"><ele>1807</ele><time>2000-01-01T01:42:55.000Z</time></trkpt><trkpt lat="45.11141" lon="5.88137"><ele>1812</ele><time>2000-01-01T01:43:05.000Z</time></trkpt><trkpt lat="45.11117" lon="5.88166"><ele>1814</ele><time>2000-01-01T01:43:15.000Z</time></trkpt><trkpt lat="45.11071" lon="5.88223"><ele>1825</ele><time>2000-01-01T01:43:25.000Z</time></trkpt><trkpt lat="45.11052" lon="5.88245"><ele>1825</ele><time>2000-01-01T01:43:35.000Z</time></trkpt><trkpt lat="45.11032" lon="5.8827"><ele>1829</ele><time>2000-01-01T01:43:45.000Z</time></trkpt><trkpt lat="45.11034" lon="5.88308"><ele>1834</ele><time>2000-01-01T01:43:55.000Z</time></trkpt><trkpt lat="45.11038" lon="5.88356"><ele>1838</ele><time>2000-01-01T01:44:05.000Z</time></trkpt><trkpt lat="45.11069" lon="5.88374"><ele>1843</ele><time>2000-01-01T01:44:15.000Z</time></trkpt><trkpt lat="45.11101" lon="5.88392"><ele>1854</ele><time>2000-01-01T01:44:25.000Z</time></trkpt><trkpt lat="45.1115" lon="5.8842"><ele>1861</ele><time>2000-01-01T01:44:35.000Z</time></trkpt><trkpt lat="45.11184" lon="5.88416"><ele>1861</ele><time>2000-01-01T01:44:45.000Z</time></trkpt><trkpt lat="45.11217" lon="5.88413"><ele>1873</ele><time>2000-01-01T01:44:55.000Z</time></trkpt><trkpt lat="45.11268" lon="5.88407"><ele>1876</ele><time>2000-01-01T01:45:05.000Z</time></trkpt><trkpt lat="45.11293" lon="5.88431"><ele>1888</ele><time>2000-01-01T01:45:15.000Z</time></trkpt><trkpt lat="45.11341" lon="5.88476"><ele>1890</ele><time>2000-01-01T01:45:25.000Z</time></trkpt><trkpt lat="45.11352" lon="5.8852"><ele>1892</ele><time>2000-01-01T01:45:35.000Z</time></trkpt><trkpt lat="45.11363" lon="5.88563"><ele>1902</ele><time>2000-01-01T01:45:45.000Z</time></trkpt><trkpt lat="45.11377" lon="5.88618"><ele>1906</ele><time>2000-01-01T01:45:55.000Z</time></trkpt><trkpt lat="45.11395" lon="5.8865"><ele>1910</ele><time>2000-01-01T01:46:05.000Z</time></trkpt><trkpt lat="45.11422" lon="5.88699"><ele>1921</ele><time>2000-01-01T01:46:15.000Z</time></trkpt><trkpt lat="45.11452" lon="5.88713"><ele>1926</ele><time>2000-01-01T01:46:25.000Z</time></trkpt><trkpt lat="45.11507" lon="5.88738"><ele>1934</ele><time>2000-01-01T01:46:35.000Z</time></trkpt><trkpt lat="45.11525" lon="5.88775"><ele>1948</ele><time>2000-01-01T01:46:45.000Z</time></trkpt><trkpt lat="45.11543" lon="5.88812"><ele>1959</ele><time>2000-01-01T01:46:55.000Z</time></trkpt><trkpt lat="45.11562" lon="5.88849"><ele>1962</ele><time>2000-01-01T01:47:05.000Z</time></trkpt><trkpt lat="45.11575" lon="5.88893"><ele>1969</ele><time>2000-01-01T01:47:15.000Z</time></trkpt><trkpt lat="45.11588" lon="5.88937"><ele>1973</ele><time>2000-01-01T01:47:25.000Z</time></trkpt><trkpt lat="45.11607" lon="5.89"><ele>1986</ele><time>2000-01-01T01:47:35.000Z</time></trkpt><trkpt lat="45.11597" lon="5.89036"><ele>1993</ele><time>2000-01-01T01:47:45.000Z</time></trkpt><trkpt lat="45.11583" lon="5.89085"><ele>2002</ele><time>2000-01-01T01:47:55.000Z</time></trkpt><trkpt lat="45.11584" lon="5.89126"><ele>2005</ele><time>2000-01-01T01:48:05.000Z</time></trkpt><trkpt lat="45.11586" lon="5.89188"><ele>2010</ele><time>2000-01-01T01:48:15.000Z</time></trkpt><trkpt lat="45.11559" lon="5.89209"><ele>2012</ele><time>2000-01-01T01:48:25.000Z</time></trkpt><trkpt lat="45.11513" lon="5.89244"><ele>2017</ele><time>2000-01-01T01:48:35.000Z</time></trkpt><trkpt lat="45.11512" lon="5.89285"><ele>2020</ele><time>2000-01-01T01:48:45.000Z</time></trkpt><trkpt lat="45.1151" lon="5.89351"><ele>2023</ele><time>2000-01-01T01:48:55.000Z</time></trkpt><trkpt lat="45.11501" lon="5.89416"><ele>2028</ele><time>2000-01-01T01:49:05.000Z</time></trkpt><trkpt lat="45.115" lon="5.89454"><ele>2031</ele><time>2000-01-01T01:49:15.000Z</time></trkpt><trkpt lat="45.11498" lon="5.89506"><ele>2036</ele><time>2000-01-01T01:49:25.000Z</time></trkpt><trkpt lat="45.11481" lon="5.89552"><ele>2038</ele><time>2000-01-01T01:49:35.000Z</time></trkpt><trkpt lat="45.11465" lon="5.89597"><ele>2044</ele><time>2000-01-01T01:49:45.000Z</time></trkpt><trkpt lat="45.11448" lon="5.89643"><ele>2045</ele><time>2000-01-01T01:49:55.000Z</time></trkpt><trkpt lat="45.11428" lon="5.89699"><ele>2063</ele><time>2000-01-01T01:50:05.000Z</time></trkpt><trkpt lat="45.11463" lon="5.89708"><ele>2064</ele><time>2000-01-01T01:50:15.000Z</time></trkpt><trkpt lat="45.11497" lon="5.89717"><ele>2068</ele><time>2000-01-01T01:50:25.000Z</time></trkpt><trkpt lat="45.11559" lon="5.89733"><ele>2088</ele><time>2000-01-01T01:50:35.000Z</time></trkpt><trkpt lat="45.11588" lon="5.8974"><ele>2094</ele><time>2000-01-01T01:50:45.000Z</time></trkpt><trkpt lat="45.11637" lon="5.89751"><ele>2095</ele><time>2000-01-01T01:50:55.000Z</time></trkpt><trkpt lat="45.1167" lon="5.89748"><ele>2096</ele><time>2000-01-01T01:51:05.000Z</time></trkpt><trkpt lat="45.11703" lon="5.89745"><ele>2104</ele><time>2000-01-01T01:51:15.000Z</time></trkpt><trkpt lat="45.11746" lon="5.89742"><ele>2118</ele><time>2000-01-01T01:51:25.000Z</time></trkpt><trkpt lat="45.11773" lon="5.89746"><ele>2126</ele><time>2000-01-01T01:51:35.000Z</time></trkpt><trkpt lat="45.11807" lon="5.89751"><ele>2126</ele><time>2000-01-01T01:51:45.000Z</time></trkpt><trkpt lat="45.11838" lon="5.89761"><ele>2127</ele><time>2000-01-01T01:51:55.000Z</time></trkpt><trkpt lat="45.11898" lon="5.89781"><ele>2136</ele><time>2000-01-01T01:52:05.000Z</time></trkpt><trkpt lat="45.11923" lon="5.89795"><ele>2145</ele><time>2000-01-01T01:52:15.000Z</time></trkpt><trkpt lat="45.11955" lon="5.89815"><ele>2147</ele><time>2000-01-01T01:52:25.000Z</time></trkpt><trkpt lat="45.11975" lon="5.89846"><ele>2150</ele><time>2000-01-01T01:52:35.000Z</time></trkpt><trkpt lat="45.12007" lon="5.89896"><ele>2153</ele><time>2000-01-01T01:52:45.000Z</time></trkpt><trkpt lat="45.12037" lon="5.89916"><ele>2152</ele><time>2000-01-01T01:52:55.000Z</time></trkpt><trkpt lat="45.12067" lon="5.89935"><ele>2152</ele><time>2000-01-01T01:53:05.000Z</time></trkpt><trkpt lat="45.12107" lon="5.89961"><ele>2149</ele><time>2000-01-01T01:53:15.000Z</time></trkpt><trkpt lat="45.12139" lon="5.89965"><ele>2147</ele><time>2000-01-01T01:53:25.000Z</time></trkpt><trkpt lat="45.12172" lon="5.89969"><ele>2147</ele><time>2000-01-01T01:53:35.000Z</time></trkpt><trkpt lat="45.12213" lon="5.89974"><ele>2161</ele><time>2000-01-01T01:53:45.000Z</time></trkpt><trkpt lat="45.12258" lon="5.89961"><ele>2167</ele><time>2000-01-01T01:53:55.000Z</time></trkpt><trkpt lat="45.12288" lon="5.89991"><ele>2181</ele><time>2000-01-01T01:54:05.000Z</time></trkpt><trkpt lat="45.12318" lon="5.90021"><ele>2194</ele><time>2000-01-01T01:54:15.000Z</time></trkpt><trkpt lat="45.12348" lon="5.90051"><ele>2214</ele><time>2000-01-01T01:54:25.000Z</time></trkpt><trkpt lat="45.12391" lon="5.90094"><ele>2214</ele><time>2000-01-01T01:54:35.000Z</time></trkpt><trkpt lat="45.12411" lon="5.90131"><ele>2215</ele><time>2000-01-01T01:54:45.000Z</time></trkpt><trkpt lat="45.12431" lon="5.90168"><ele>2218</ele><time>2000-01-01T01:54:55.000Z</time></trkpt><trkpt lat="45.12455" lon="5.90214"><ele>2223</ele><time>2000-01-01T01:55:05.000Z</time></trkpt><trkpt lat="45.12476" lon="5.90252"><ele>2230</ele><time>2000-01-01T01:55:15.000Z</time></trkpt><trkpt lat="45.12497" lon="5.90291"><ele>2241</ele><time>2000-01-01T01:55:25.000Z</time></trkpt><trkpt lat="45.12531" lon="5.90351"><ele>2244</ele><time>2000-01-01T01:55:35.000Z</time></trkpt><trkpt lat="45.12555" lon="5.90361"><ele>2248</ele><time>2000-01-01T01:55:45.000Z</time></trkpt><trkpt lat="45.12582" lon="5.90373"><ele>2248</ele><time>2000-01-01T01:55:55.000Z</time></trkpt></trkseg></trk></gpx>